Time;durP1;ratioP1;P1;durP2;ratioP2;P2;SDS_P1;SDS_P2;PMS_P1;PMS_P2;Temp;Humidity;BMP_temperature;BMP_pressure;BME280_temperature;BME280_humidity;BME280_pressure;Samples;Min_cycle;Max_cycle;Signal;HPM_P1;HPM_P2
2023/06/27 00:00:54;;;;;;;11.80;10.60;;;20.00;99.90;;;;;;2603445;54;20845;31
2023/06/27 00:03:29;;;;;;;12.38;11.18;;;20.00;99.90;;;;;;2621502;46;20976;31
2023/06/27 00:06:19;;;;;;;12.27;10.30;;;19.90;99.90;;;;;;2603423;54;20835;31
2023/06/27 00:08:55;;;;;;;13.68;11.02;;;19.90;99.90;;;;;;2603175;54;20932;31
2023/06/27 00:11:30;;;;;;;11.48;9.90;;;19.80;99.90;;;;;;2621934;46;20042;31
2023/06/27 00:14:08;;;;;;;11.83;10.73;;;19.80;99.90;;;;;;2621749;46;20026;31
2023/06/27 00:16:49;;;;;;;11.13;9.93;;;19.80;99.90;;;;;;2603390;54;20042;31
2023/06/27 00:19:25;;;;;;;12.75;10.45;;;19.80;99.90;;;;;;2603232;54;20840;31
2023/06/27 00:22:09;;;;;;;10.88;9.77;;;19.80;99.90;;;;;;2621218;46;20954;31
2023/06/27 00:24:46;;;;;;;;;;;19.80;99.90;;;;;;2622177;46;20817;31
2023/06/27 00:27:21;;;;;;;13.63;10.17;;;19.80;99.90;;;;;;2603160;54;19938;31
2023/06/27 00:29:58;;;;;;;10.97;9.73;;;19.70;99.90;;;;;;2621797;46;20026;31
2023/06/27 00:32:33;;;;;;;12.20;11.00;;;19.70;99.90;;;;;;2603522;54;20022;31
2023/06/27 00:35:11;;;;;;;11.98;10.30;;;19.60;99.90;;;;;;2603398;54;20034;31
2023/06/27 00:37:49;;;;;;;11.50;10.30;;;19.60;99.90;;;;;;2603149;54;20565;31
2023/06/27 00:40:24;;;;;;;15.43;10.70;;;19.60;99.90;;;;;;2603135;54;20034;31
2023/06/27 00:43:02;;;;;;;16.70;11.85;;;19.50;99.90;;;;;;2602800;54;20048;31
2023/06/27 00:45:37;;;;;;;22.95;10.30;;;19.50;99.90;;;;;;2603137;54;20913;31
2023/06/27 00:48:15;;;;;;;11.60;9.68;;;19.50;99.90;;;;;;2603199;54;20675;31
2023/06/27 00:50:54;;;;;;;13.48;10.32;;;19.40;99.90;;;;;;2603139;54;20775;31
2023/06/27 00:53:31;;;;;;;14.43;11.17;;;19.40;99.90;;;;;;2603449;54;20851;31
2023/06/27 00:56:08;;;;;;;12.88;9.95;;;19.30;99.90;;;;;;2603412;54;20885;31
2023/06/27 00:58:45;;;;;;;12.20;11.00;;;19.30;99.90;;;;;;2603225;54;20038;31
2023/06/27 01:01:23;;;;;;;12.35;8.85;;;19.20;99.90;;;;;;2603274;54;20745;31
2023/06/27 01:03:58;;;;;;;10.85;8.75;;;19.20;99.90;;;;;;2603236;54;20046;31
2023/06/27 01:06:40;;;;;;;10.25;8.98;;;19.10;99.90;;;;;;2603044;54;19935;31
2023/06/27 01:09:26;;;;;;;11.98;9.50;;;19.10;99.90;;;;;;2603062;54;20033;31
2023/06/27 01:12:05;;;;;;;13.77;10.10;;;19.00;99.90;;;;;;2621889;46;20033;31
2023/06/27 01:14:43;;;;;;;12.07;9.50;;;19.00;99.90;;;;;;2603156;54;20032;31
2023/06/27 01:17:21;;;;;;;11.33;9.33;;;18.90;99.90;;;;;;2621067;46;20958;31
2023/06/27 01:19:58;;;;;;;12.88;10.00;;;18.80;99.90;;;;;;2603050;54;20242;31
2023/06/27 01:22:36;;;;;;;11.80;9.90;;;18.80;99.90;;;;;;2603362;54;20026;31
2023/06/27 01:25:14;;;;;;;12.33;9.77;;;18.80;99.90;;;;;;2621661;46;20026;31
2023/06/27 01:27:53;;;;;;;12.57;10.07;;;18.70;99.90;;;;;;2603056;54;20556;31
2023/06/27 01:30:33;;;;;;;12.80;9.75;;;18.70;99.90;;;;;;2621791;46;20758;31
2023/06/27 01:33:12;;;;;;;13.77;10.10;;;18.60;99.90;;;;;;2608633;47;20019;31
2023/06/27 01:35:51;;;;;;;14.80;9.50;;;18.60;99.90;;;;;;2603980;54;20876;31
2023/06/27 01:38:31;;;;;;;13.25;10.55;;;18.60;99.90;;;;;;2604911;54;20243;31
2023/06/27 01:41:06;;;;;;;16.98;10.65;;;18.60;99.90;;;;;;2604752;54;24066;31
2023/06/27 01:43:49;;;;;;;15.18;11.52;;;18.60;99.90;;;;;;2604764;54;20875;31
2023/06/27 01:46:26;;;;;;;15.10;12.05;;;18.50;99.90;;;;;;2605098;54;20153;31
2023/06/27 01:49:03;;;;;;;13.48;10.57;;;18.50;99.90;;;;;;2604469;54;20030;31
2023/06/27 01:51:37;;;;;;;13.77;10.93;;;18.40;99.90;;;;;;2604795;54;20038;31
2023/06/27 01:54:13;;;;;;;15.48;11.25;;;18.40;99.90;;;;;;2604972;54;20031;31
2023/06/27 01:56:50;;;;;;;13.60;11.30;;;18.50;99.90;;;;;;2604972;54;20569;31
2023/06/27 01:59:29;;;;;;;12.93;11.33;;;18.40;99.90;;;;;;2623479;46;20250;31
2023/06/27 02:02:06;;;;;;;20.90;14.20;;;18.40;99.90;;;;;;2722045;39;20472;31
2023/06/27 02:04:41;;;;;;;20.95;13.70;;;18.40;99.90;;;;;;2622962;46;20089;31
2023/06/27 02:07:17;;;;;;;17.95;12.70;;;18.40;99.90;;;;;;2774750;31;20612;31
2023/06/27 02:09:55;;;;;;;16.77;12.53;;;18.40;99.90;;;;;;2604646;54;20057;31
2023/06/27 02:12:30;;;;;;;19.03;13.73;;;18.40;99.90;;;;;;2604777;54;20562;31
2023/06/27 02:15:10;;;;;;;17.40;15.67;;;18.50;99.90;;;;;;2604619;54;20757;31
2023/06/27 02:17:46;;;;;;;16.35;13.20;;;18.50;99.90;;;;;;2603797;54;20034;31
2023/06/27 02:20:28;;;;;;;16.43;13.60;;;18.50;99.90;;;;;;2623153;46;20026;31
2023/06/27 02:23:06;;;;;;;22.35;15.07;;;18.50;99.90;;;;;;2604569;54;20009;31
2023/06/27 02:25:45;;;;;;;19.67;16.33;;;18.50;99.90;;;;;;2604666;54;20931;31
2023/06/27 02:28:23;;;;;;;22.25;16.92;;;18.50;99.90;;;;;;2604664;54;19960;31
2023/06/27 02:31:02;;;;;;;18.67;15.85;;;18.50;99.90;;;;;;2603886;54;20060;31
2023/06/27 02:33:37;;;;;;;25.30;15.73;;;18.50;99.90;;;;;;2604621;54;20029;31
2023/06/27 02:36:17;;;;;;;18.67;16.38;;;18.50;99.90;;;;;;2619261;46;20030;31
2023/06/27 02:38:56;;;;;;;22.55;15.85;;;18.50;99.90;;;;;;2604665;54;20073;31
2023/06/27 02:41:34;;;;;;;26.10;17.05;;;18.50;99.90;;;;;;2604562;54;20137;31
2023/06/27 02:44:10;;;;;;;22.90;16.80;;;18.50;99.90;;;;;;2714426;39;21493;31
2023/06/27 02:46:48;;;;;;;;;;;18.50;99.90;;;;;;2701481;39;20732;31
2023/06/27 02:49:23;;;;;;;21.33;16.50;;;18.50;99.90;;;;;;2603809;54;20665;31
2023/06/27 02:51:59;;;;;;;19.25;16.65;;;18.50;99.90;;;;;;2603825;54;20053;31
2023/06/27 02:54:34;;;;;;;30.95;18.35;;;18.50;99.90;;;;;;2603740;54;20030;31
2023/06/27 02:57:10;;;;;;;26.02;17.85;;;18.50;99.90;;;;;;2603789;54;20079;31
2023/06/27 02:59:47;;;;;;;24.58;18.15;;;18.50;99.90;;;;;;2603531;54;20085;31
2023/06/27 03:02:27;;;;;;;19.27;17.08;;;18.60;99.90;;;;;;2603742;54;20888;31
2023/06/27 03:05:04;;;;;;;22.38;17.08;;;18.60;99.90;;;;;;2603638;54;20879;31
2023/06/27 03:07:41;;;;;;;21.90;18.05;;;18.60;99.90;;;;;;2603771;54;20053;31
2023/06/27 03:10:16;;;;;;;22.65;16.73;;;18.60;99.90;;;;;;2621715;46;20058;31
2023/06/27 03:12:52;;;;;;;18.75;16.75;;;18.50;99.90;;;;;;2603575;54;20093;31
2023/06/27 03:15:29;;;;;;;22.88;17.80;;;18.50;99.90;;;;;;2603534;54;20994;31
2023/06/27 03:18:08;;;;;;;17.27;15.35;;;18.50;99.90;;;;;;2603421;54;20027;31
2023/06/27 03:20:44;;;;;;;17.20;14.18;;;18.50;99.90;;;;;;2621971;46;20840;31
2023/06/27 03:23:22;;;;;;;19.55;14.57;;;18.50;99.90;;;;;;2602957;54;20023;31
2023/06/27 03:26:01;;;;;;;21.75;15.25;;;18.50;99.90;;;;;;2621695;46;20050;31
2023/06/27 03:28:40;;;;;;;17.85;13.57;;;18.40;99.90;;;;;;2603330;54;20085;31
2023/06/27 03:31:17;;;;;;;16.75;13.85;;;18.40;99.90;;;;;;2603745;54;20023;31
2023/06/27 03:33:59;;;;;;;15.73;13.63;;;18.40;99.90;;;;;;2621734;46;21549;31
2023/06/27 03:36:37;;;;;;;14.87;11.60;;;18.40;99.90;;;;;;2603477;54;20250;31
2023/06/27 03:39:13;;;;;;;13.20;10.10;;;18.30;99.90;;;;;;2603400;54;20030;31
2023/06/27 03:41:50;;;;;;;;;;;18.30;99.90;;;;;;2622010;46;20037;31
2023/06/27 03:44:31;;;;;;;21.17;9.95;;;18.20;99.90;;;;;;2602611;54;20813;31
2023/06/27 03:47:11;;;;;;;13.05;9.55;;;18.20;99.90;;;;;;2603077;54;20036;31
2023/06/27 03:49:50;;;;;;;12.63;9.20;;;18.10;99.90;;;;;;2603296;54;20039;31
2023/06/27 03:52:25;;;;;;;12.18;9.18;;;18.10;99.90;;;;;;2603580;54;20826;31
2023/06/27 03:55:03;;;;;;;14.77;9.95;;;18.10;99.90;;;;;;2702040;39;20466;31
2023/06/27 03:57:39;;;;;;;14.55;10.48;;;18.10;99.90;;;;;;2603395;54;20089;31
2023/06/27 04:00:18;;;;;;;14.43;10.13;;;18.00;99.90;;;;;;2602810;54;20117;31
2023/06/27 04:02:54;;;;;;;16.55;10.40;;;18.00;99.90;;;;;;2602944;54;20034;31
2023/06/27 04:05:35;;;;;;;13.77;10.18;;;18.00;99.90;;;;;;2603362;54;20110;31
2023/06/27 04:08:12;;;;;;;12.70;10.82;;;17.90;99.90;;;;;;2603316;54;20026;31
2023/06/27 04:10:49;;;;;;;13.37;10.17;;;17.90;99.90;;;;;;2603269;54;20027;31
2023/06/27 04:13:28;;;;;;;12.05;9.93;;;17.90;99.90;;;;;;2603224;54;20034;31
2023/06/27 04:16:04;;;;;;;13.50;10.93;;;17.90;99.90;;;;;;2603618;54;20118;31
2023/06/27 04:18:42;;;;;;;;;;;17.90;99.90;;;;;;2621963;46;20920;31
2023/06/27 04:21:23;;;;;;;14.73;10.35;;;17.90;99.90;;;;;;2621730;46;19935;31
2023/06/27 04:24:00;;;;;;;14.68;11.00;;;17.80;99.90;;;;;;2621229;46;20861;31
2023/06/27 04:26:36;;;;;;;16.65;11.20;;;17.80;99.90;;;;;;2720725;39;20521;31
2023/06/27 04:29:12;;;;;;;16.80;10.45;;;17.80;99.90;;;;;;2603337;54;20026;31
2023/06/27 04:31:49;;;;;;;15.00;9.88;;;17.70;99.90;;;;;;2603165;54;20057;31
2023/06/27 04:34:24;;;;;;;9.82;8.57;;;17.70;99.90;;;;;;2603510;54;20026;31
2023/06/27 04:37:06;;;;;;;9.20;7.83;;;17.60;99.90;;;;;;2701872;39;20414;31
2023/06/27 04:39:41;;;;;;;9.38;6.65;;;17.60;99.90;;;;;;2603404;54;20034;31
2023/06/27 04:42:16;;;;;;;15.80;6.88;;;17.60;99.90;;;;;;2603360;54;20026;31
2023/06/27 04:44:55;;;;;;;15.25;6.93;;;17.60;99.90;;;;;;2701862;39;20489;31
2023/06/27 04:47:32;;;;;;;11.07;6.28;;;17.60;99.90;;;;;;2603315;54;20030;31
2023/06/27 04:50:11;;;;;;;12.38;6.72;;;17.60;99.90;;;;;;2621587;46;20033;31
2023/06/27 04:52:48;;;;;;;8.93;6.55;;;17.60;99.90;;;;;;2603384;54;20026;31
2023/06/27 04:55:24;;;;;;;9.73;6.40;;;17.60;99.90;;;;;;2603295;54;19935;31
2023/06/27 04:58:02;;;;;;;13.47;6.67;;;17.60;99.90;;;;;;2603156;54;20846;31
2023/06/27 05:00:37;;;;;;;15.18;7.10;;;17.50;99.90;;;;;;2603157;54;20798;31
2023/06/27 05:03:13;;;;;;;9.68;6.15;;;17.50;99.90;;;;;;2603104;54;20053;31
2023/06/27 05:05:49;;;;;;;8.65;5.93;;;17.50;99.90;;;;;;2603141;54;20027;31
2023/06/27 05:08:28;;;;;;;11.57;5.55;;;17.60;99.90;;;;;;2602636;54;20034;31
2023/06/27 05:11:04;;;;;;;8.60;5.88;;;17.80;99.90;;;;;;2603011;54;20965;31
2023/06/27 05:13:39;;;;;;;9.33;5.70;;;18.00;99.90;;;;;;2602867;54;20026;31
2023/06/27 05:16:14;;;;;;;11.55;6.35;;;18.10;99.90;;;;;;2603048;54;20799;31
2023/06/27 05:18:52;;;;;;;;;;;18.20;99.90;;;;;;2602893;54;20097;31
2023/06/27 05:21:29;;;;;;;9.27;4.07;;;18.20;99.90;;;;;;2621038;46;19941;31
2023/06/27 05:24:08;;;;;;;7.90;4.45;;;18.30;99.90;;;;;;2603155;54;20034;31
2023/06/27 05:26:44;;;;;;;8.02;3.95;;;18.50;99.90;;;;;;2603164;54;20053;31
2023/06/27 05:29:19;;;;;;;9.70;4.18;;;18.70;99.90;;;;;;2603099;54;20918;31
2023/06/27 05:31:55;;;;;;;6.82;3.72;;;19.00;99.90;;;;;;2603115;54;20117;31
2023/06/27 05:34:32;;;;;;;6.95;3.42;;;19.20;99.90;;;;;;2603008;54;20770;31
2023/06/27 05:37:09;;;;;;;5.65;3.83;;;19.60;99.90;;;;;;2603149;54;20049;31
2023/06/27 05:39:51;;;;;;;7.72;3.58;;;19.70;99.90;;;;;;2603038;54;20050;31
2023/06/27 05:42:27;;;;;;;6.82;3.63;;;19.70;99.90;;;;;;2603097;54;20890;31
2023/06/27 05:45:02;;;;;;;6.43;3.45;;;19.80;99.90;;;;;;2602961;54;20027;31
2023/06/27 05:47:40;;;;;;;5.07;3.22;;;20.10;99.90;;;;;;2621768;47;20889;31
2023/06/27 05:50:16;;;;;;;8.63;3.63;;;20.20;99.90;;;;;;2603317;54;20030;31
2023/06/27 05:52:54;;;;;;;6.43;3.45;;;20.10;99.90;;;;;;2602928;54;20791;31
2023/06/27 05:55:29;;;;;;;5.40;3.20;;;20.00;99.90;;;;;;2603117;54;20030;31
2023/06/27 05:58:07;;;;;;;8.77;3.20;;;19.90;99.90;;;;;;2621191;47;20013;31
2023/06/27 06:00:44;;;;;;;8.10;3.25;;;19.60;99.90;;;;;;2602919;54;20027;31
2023/06/27 06:03:21;;;;;;;7.72;3.10;;;19.50;99.90;;;;;;2621574;47;20775;31
2023/06/27 06:05:59;;;;;;;7.25;3.20;;;19.40;99.90;;;;;;2603030;54;20763;31
2023/06/27 06:08:38;;;;;;;8.70;3.75;;;19.60;99.90;;;;;;2602772;54;20061;31
2023/06/27 06:11:13;;;;;;;7.53;3.35;;;19.50;99.90;;;;;;2602509;54;20033;31
2023/06/27 06:13:53;;;;;;;4.13;2.10;;;19.30;99.90;;;;;;2602852;54;20029;31
2023/06/27 06:16:32;;;;;;;6.93;2.33;;;19.20;99.90;;;;;;2701596;39;21055;31
2023/06/27 06:19:11;;;;;;;5.97;2.80;;;19.40;99.90;;;;;;2621065;47;20030;31
2023/06/27 06:21:48;;;;;;;10.85;2.60;;;19.50;99.90;;;;;;2603454;54;20026;31
2023/06/27 06:24:26;;;;;;;8.05;2.45;;;19.90;99.90;;;;;;2603735;54;20022;31
2023/06/27 06:27:06;;;;;;;5.15;2.78;;;19.90;99.90;;;;;;2603924;54;20875;31
2023/06/27 06:29:48;;;;;;;5.30;2.20;;;20.10;99.90;;;;;;2622261;46;20046;31
2023/06/27 06:32:25;;;;;;;7.22;2.28;;;20.40;99.90;;;;;;2603719;54;19942;31
2023/06/27 06:35:02;;;;;;;5.43;1.83;;;20.70;99.90;;;;;;2603536;54;20141;31
2023/06/27 06:37:37;;;;;;;5.57;2.35;;;20.70;99.90;;;;;;2602904;54;20030;31
2023/06/27 06:40:15;;;;;;;7.60;2.28;;;20.80;99.90;;;;;;2603000;54;20875;31
2023/06/27 06:42:53;;;;;;;4.35;2.08;;;20.60;99.90;;;;;;2602735;54;19934;31
2023/06/27 06:45:31;;;;;;;8.43;2.30;;;20.60;99.90;;;;;;2602819;54;20038;31
2023/06/27 06:48:09;;;;;;;4.90;1.95;;;20.70;99.90;;;;;;2603403;54;20030;31
2023/06/27 06:50:43;;;;;;;5.68;1.90;;;20.90;99.90;;;;;;2622093;46;20026;31
2023/06/27 06:53:21;;;;;;;7.78;1.77;;;21.20;99.90;;;;;;2720212;39;20303;31
2023/06/27 06:55:59;;;;;;;9.80;2.25;;;21.70;99.90;;;;;;2603500;54;20072;31
2023/06/27 06:58:36;;;;;;;9.15;2.15;;;21.90;99.90;;;;;;2622048;46;20905;31
2023/06/27 07:01:20;;;;;;;8.07;2.08;;;22.00;99.90;;;;;;2603503;54;20034;31
2023/06/27 07:03:56;;;;;;;10.25;2.25;;;22.00;99.90;;;;;;2603753;54;20037;31
2023/06/27 07:09:01;;;;;;;6.45;2.17;;;21.90;99.90;;;;;;2603654;54;20030;31
2023/06/27 07:11:37;;;;;;;9.23;2.35;;;21.90;99.90;;;;;;2622156;46;20037;31
2023/06/27 07:14:12;;;;;;;8.65;1.50;;;22.00;99.90;;;;;;2622081;46;20026;31
2023/06/27 07:16:51;;;;;;;5.13;2.10;;;22.20;99.90;;;;;;2603664;54;20116;31
2023/06/27 07:19:30;;;;;;;5.35;1.67;;;22.40;99.90;;;;;;2603714;54;20863;31
2023/06/27 07:22:09;;;;;;;10.88;1.52;;;22.60;99.90;;;;;;2603490;54;21050;31
2023/06/27 07:24:44;;;;;;;6.25;1.70;;;22.50;99.90;;;;;;2603377;54;20050;31
2023/06/27 07:27:23;;;;;;;3.17;1.60;;;22.50;99.90;;;;;;2621787;46;20895;31
2023/06/27 07:29:57;;;;;;;5.72;1.75;;;22.50;99.90;;;;;;2603507;54;20490;31
2023/06/27 07:32:37;;;;;;;6.15;2.28;;;22.50;99.90;;;;;;2603293;54;20109;31
2023/06/27 07:35:16;;;;;;;9.17;1.97;;;22.60;99.90;;;;;;2622081;46;20027;31
2023/06/27 07:37:51;;;;;;;7.95;2.03;;;22.90;99.90;;;;;;2603537;54;20842;31
2023/06/27 07:40:28;;;;;;;4.55;1.45;;;23.10;99.90;;;;;;2621766;46;20060;31
2023/06/27 07:43:04;;;;;;;7.43;2.17;;;23.20;99.90;;;;;;2621698;46;20137;31
2023/06/27 07:45:42;;;;;;;6.90;2.10;;;23.00;99.90;;;;;;2603427;54;20045;31
2023/06/27 07:48:23;;;;;;;4.32;1.92;;;23.20;99.90;;;;;;2603733;54;20935;31
2023/06/27 07:51:03;;;;;;;4.78;1.52;;;23.10;99.90;;;;;;2603722;54;20031;31
2023/06/27 07:53:41;;;;;;;9.75;2.25;;;22.90;99.90;;;;;;2621838;46;20033;31
2023/06/27 07:56:17;;;;;;;3.90;1.65;;;23.00;99.90;;;;;;2603533;54;20919;31
2023/06/27 07:58:53;;;;;;;4.40;1.60;;;23.20;99.90;;;;;;2603305;54;20033;31
2023/06/27 08:01:30;;;;;;;7.60;2.00;;;23.10;99.90;;;;;;2621644;46;20164;31
2023/06/27 08:04:10;;;;;;;6.65;1.67;;;23.00;99.90;;;;;;2603369;54;20105;31
2023/06/27 08:06:53;;;;;;;5.90;1.58;;;23.00;99.90;;;;;;2602786;54;20877;31
2023/06/27 08:09:29;;;;;;;5.47;1.63;;;23.20;99.90;;;;;;2603067;54;20929;31
2023/06/27 08:12:09;;;;;;;8.80;1.77;;;23.40;99.90;;;;;;2603501;54;20033;31
2023/06/27 08:14:49;;;;;;;5.25;2.10;;;23.50;99.90;;;;;;2702327;39;21014;31
2023/06/27 08:17:27;;;;;;;7.05;1.90;;;23.50;99.90;;;;;;2603239;54;20978;31
2023/06/27 08:20:07;;;;;;;4.15;1.55;;;23.40;99.90;;;;;;2622124;46;20153;31
2023/06/27 08:22:46;;;;;;;5.20;1.27;;;23.50;99.90;;;;;;2603383;54;20858;31
2023/06/27 08:25:24;;;;;;;4.35;1.60;;;23.50;99.90;;;;;;2603334;54;20054;31
2023/06/27 08:28:00;;;;;;;5.65;1.38;;;23.40;99.90;;;;;;2603547;54;20026;31
2023/06/27 08:30:38;;;;;;;4.40;1.35;;;23.40;99.90;;;;;;2603236;54;20794;31
2023/06/27 08:33:18;;;;;;;5.47;1.43;;;23.60;99.90;;;;;;2603391;54;20036;31
2023/06/27 08:35:59;;;;;;;5.00;1.17;;;23.70;99.90;;;;;;2602443;54;20029;31
2023/06/27 08:38:36;;;;;;;4.35;1.20;;;23.80;99.90;;;;;;2603307;54;20031;31
2023/06/27 08:41:14;;;;;;;4.43;1.38;;;24.00;99.90;;;;;;2603307;54;20183;31
2023/06/27 08:43:52;;;;;;;5.75;1.85;;;24.00;99.90;;;;;;2602236;54;20026;31
2023/06/27 08:46:31;;;;;;;5.47;1.30;;;24.20;99.90;;;;;;2602806;54;20029;31
2023/06/27 08:49:07;;;;;;;6.07;1.27;;;24.50;99.90;;;;;;2603157;54;20917;31
2023/06/27 08:51:48;;;;;;;6.07;1.23;;;24.50;99.90;;;;;;2603218;54;20030;31
2023/06/27 08:54:26;;;;;;;4.70;1.83;;;24.40;99.90;;;;;;2603254;54;20825;31
2023/06/27 08:57:03;;;;;;;3.65;1.40;;;24.40;99.90;;;;;;2603124;54;20026;31
2023/06/27 08:59:42;;;;;;;6.40;1.75;;;24.80;99.90;;;;;;2602745;54;20967;31
2023/06/27 09:02:18;;;;;;;5.63;1.52;;;24.80;99.90;;;;;;2621728;46;20026;31
2023/06/27 09:04:58;;;;;;;6.75;1.92;;;24.60;99.90;;;;;;2603259;54;20027;31
2023/06/27 09:07:36;;;;;;;8.27;1.48;;;24.70;99.90;;;;;;2603205;54;19961;31
2023/06/27 09:10:14;;;;;;;7.80;1.52;;;24.90;99.90;;;;;;2603021;54;20037;31
2023/06/27 09:12:53;;;;;;;4.60;1.20;;;24.80;99.90;;;;;;2603191;54;20026;31
2023/06/27 09:15:28;;;;;;;5.78;1.55;;;24.60;99.90;;;;;;2603045;54;20815;31
2023/06/27 09:18:04;;;;;;;3.35;1.50;;;24.30;99.90;;;;;;2621589;46;20026;31
2023/06/27 09:20:41;;;;;;;4.95;1.33;;;24.40;99.90;;;;;;2603231;54;20896;31
2023/06/27 09:23:20;;;;;;;3.72;1.27;;;24.40;99.90;;;;;;2621646;46;20034;31
2023/06/27 09:26:10;;;;;;;7.55;1.58;;;24.30;99.90;;;;;;2621576;46;20026;31
2023/06/27 09:28:50;;;;;;;13.65;1.55;;;24.00;99.90;;;;;;2603169;54;20069;31
2023/06/27 09:31:30;;;;;;;3.95;1.10;;;23.60;99.90;;;;;;2603099;54;20053;31
2023/06/27 09:34:09;;;;;;;9.97;1.53;;;23.20;99.90;;;;;;2606661;47;20030;31
2023/06/27 09:36:46;;;;;;;3.97;1.73;;;23.20;99.90;;;;;;2603017;54;20581;31
2023/06/27 09:39:28;;;;;;;3.87;1.30;;;23.50;99.90;;;;;;2603300;54;20030;31
2023/06/27 09:42:08;;;;;;;7.10;1.50;;;23.60;99.90;;;;;;2603141;54;19962;31
2023/06/27 09:44:47;;;;;;;4.70;1.67;;;23.80;99.90;;;;;;2621457;47;20027;31
2023/06/27 09:47:27;;;;;;;3.60;1.52;;;24.00;99.90;;;;;;2603066;54;21199;31
2023/06/27 09:50:08;;;;;;;3.47;1.45;;;24.20;99.90;;;;;;2603108;54;20835;31
2023/06/27 09:52:52;;;;;;;3.67;1.98;;;24.00;99.90;;;;;;2621527;47;20045;31
2023/06/27 09:55:39;;;;;;;6.47;1.75;;;23.70;99.90;;;;;;2622093;47;20752;31
2023/06/27 09:58:21;;;;;;;3.92;1.00;;;23.50;99.90;;;;;;2603713;54;20038;31
2023/06/27 10:00:58;;;;;;;3.97;0.90;;;23.30;99.90;;;;;;2622367;46;20033;31
2023/06/27 10:03:38;;;;;;;4.88;1.10;;;23.00;99.90;;;;;;2702611;39;21042;31
2023/06/27 10:06:17;;;;;;;3.47;0.97;;;23.00;99.90;;;;;;2622380;46;20030;31
2023/06/27 10:08:53;;;;;;;2.67;0.82;;;23.00;99.90;;;;;;2603744;54;21093;31
2023/06/27 10:11:38;;;;;;;3.35;0.90;;;23.30;99.90;;;;;;2603605;54;20081;31
2023/06/27 10:14:20;;;;;;;3.10;1.10;;;23.60;99.90;;;;;;2603869;54;20022;31
2023/06/27 10:17:00;;;;;;;4.28;1.48;;;23.90;99.90;;;;;;2603971;54;20037;31
2023/06/27 10:19:39;;;;;;;3.17;1.20;;;24.10;99.90;;;;;;2622323;46;20870;31
2023/06/27 10:22:17;;;;;;;1.92;1.00;;;24.30;99.90;;;;;;2603735;54;20049;31
2023/06/27 10:24:56;;;;;;;6.25;1.30;;;24.60;99.90;;;;;;2603864;54;20906;31
2023/06/27 10:27:38;;;;;;;3.88;1.55;;;24.80;99.90;;;;;;2603978;54;20030;31
2023/06/27 10:30:16;;;;;;;5.15;1.48;;;25.00;99.90;;;;;;2603661;54;19934;31
2023/06/27 10:32:53;;;;;;;4.82;1.50;;;24.90;99.90;;;;;;2603678;54;20026;31
2023/06/27 10:35:31;;;;;;;3.63;1.40;;;25.00;99.90;;;;;;2603538;54;20076;31
2023/06/27 10:38:10;;;;;;;5.32;1.25;;;25.20;99.90;;;;;;2603625;54;20788;31
2023/06/27 10:41:14;;;;;;;2.70;1.05;;;25.10;99.90;;;;;;2621751;46;20117;31
2023/06/27 10:43:58;;;;;;;3.58;1.35;;;24.90;99.90;;;;;;2603774;54;20884;31
2023/06/27 10:46:34;;;;;;;6.95;1.23;;;24.50;99.90;;;;;;2622304;46;20960;31
2023/06/27 10:49:10;;;;;;;4.25;1.20;;;24.20;99.90;;;;;;2603437;54;20146;31
2023/06/27 10:51:48;;;;;;;3.65;1.00;;;24.00;99.90;;;;;;2602855;54;20031;31
2023/06/27 10:54:27;;;;;;;2.13;0.90;;;23.90;99.90;;;;;;2603010;54;20030;31
2023/06/27 10:57:03;;;;;;;3.53;1.23;;;23.70;99.90;;;;;;2603504;54;20023;31
2023/06/27 10:59:45;;;;;;;2.90;1.10;;;23.60;99.90;;;;;;2622133;46;20030;31
2023/06/27 11:02:22;;;;;;;3.40;1.20;;;23.50;99.90;;;;;;2603819;54;20022;31
2023/06/27 11:04:59;;;;;;;4.72;1.60;;;23.30;99.90;;;;;;2621947;46;20056;31
2023/06/27 11:07:34;;;;;;;2.90;1.35;;;23.40;99.90;;;;;;2603321;54;20129;31
2023/06/27 11:10:24;;;;;;;4.70;1.33;;;23.40;99.90;;;;;;2603717;54;20038;31
2023/06/27 11:13:17;;;;;;;3.28;1.00;;;23.50;99.90;;;;;;2622137;46;20026;31
2023/06/27 11:15:56;;;;;;;5.90;1.52;;;23.70;99.90;;;;;;2603704;54;20844;31
2023/06/27 11:18:34;;;;;;;2.53;1.10;;;23.80;99.90;;;;;;2602856;54;20567;31
2023/06/27 11:21:12;;;;;;;6.50;1.15;;;24.00;99.90;;;;;;2602793;54;20254;31
2023/06/27 11:23:51;;;;;;;6.15;1.35;;;24.10;99.90;;;;;;2603502;54;20034;31
2023/06/27 11:26:27;;;;;;;4.38;1.08;;;24.10;99.90;;;;;;2621992;46;20077;31
2023/06/27 11:29:05;;;;;;;5.30;1.10;;;24.20;99.90;;;;;;2603462;54;20026;31
2023/06/27 11:31:44;;;;;;;3.85;0.80;;;24.30;99.90;;;;;;2773414;31;21442;31
2023/06/27 11:34:20;;;;;;;4.03;0.90;;;24.30;99.90;;;;;;2621670;46;20942;31
2023/06/27 11:37:06;;;;;;;4.40;0.90;;;24.30;99.90;;;;;;2603647;54;20030;31
2023/06/27 11:39:44;;;;;;;8.15;1.05;;;24.20;99.90;;;;;;2603478;54;20026;31
2023/06/27 11:42:20;;;;;;;3.17;0.77;;;24.20;99.90;;;;;;2621986;46;20033;31
2023/06/27 11:44:56;;;;;;;5.97;0.95;;;24.20;99.90;;;;;;2603401;54;20022;31
2023/06/27 11:47:38;;;;;;;5.30;0.80;;;24.40;99.90;;;;;;2621613;46;20893;31
2023/06/27 11:50:16;;;;;;;3.33;1.27;;;24.40;99.90;;;;;;2603422;54;20061;31
2023/06/27 11:52:53;;;;;;;2.30;0.95;;;24.30;99.90;;;;;;2603597;54;19934;31
2023/06/27 11:55:29;;;;;;;5.32;1.00;;;24.10;99.90;;;;;;2621949;46;20033;31
2023/06/27 11:58:05;;;;;;;6.90;1.23;;;24.00;99.90;;;;;;2603581;54;20027;31
2023/06/27 12:00:40;;;;;;;3.67;1.02;;;23.80;99.90;;;;;;2621816;46;20034;31
2023/06/27 12:03:29;;;;;;;3.80;0.80;;;23.70;99.90;;;;;;2603613;54;20022;31
2023/06/27 12:06:13;;;;;;;7.10;1.23;;;23.70;99.90;;;;;;2603434;54;20744;31
2023/06/27 12:08:53;;;;;;;5.50;1.52;;;23.70;99.30;;;;;;2603396;54;20023;31
2023/06/27 12:11:34;;;;;;;6.47;1.13;;;23.80;99.90;;;;;;2603406;54;20030;31
2023/06/27 12:14:14;;;;;;;7.30;1.40;;;23.70;99.00;;;;;;2602606;54;20113;31
2023/06/27 12:16:56;;;;;;;4.25;0.70;;;23.60;99.90;;;;;;2603554;54;20903;31
2023/06/27 12:19:35;;;;;;;4.00;0.80;;;23.50;99.20;;;;;;2603547;54;20026;31
2023/06/27 12:22:10;;;;;;;9.20;1.10;;;23.60;99.90;;;;;;2603246;54;20955;31
2023/06/27 12:24:50;;;;;;;4.70;0.85;;;23.60;98.40;;;;;;2603461;54;20030;31
2023/06/27 12:27:25;;;;;;;3.13;1.20;;;23.80;99.90;;;;;;2603112;54;20943;31
2023/06/27 12:30:12;;;;;;;6.25;1.40;;;23.80;98.50;;;;;;2621877;46;20990;31
2023/06/27 12:32:49;;;;;;;1.35;0.70;;;23.60;95.80;;;;;;2603289;54;20027;31
2023/06/27 12:35:31;;;;;;;3.58;0.70;;;23.40;96.50;;;;;;2603226;54;20027;31
2023/06/27 12:38:08;;;;;;;5.85;1.10;;;23.10;96.50;;;;;;2602561;54;20112;31
2023/06/27 12:40:45;;;;;;;5.38;0.93;;;23.00;96.60;;;;;;2602509;54;20750;31
2023/06/27 12:43:22;;;;;;;5.60;1.17;;;22.80;97.20;;;;;;2603236;54;20081;31
2023/06/27 12:46:06;;;;;;;6.10;0.68;;;22.60;97.50;;;;;;2621914;46;20054;31
2023/06/27 12:48:43;;;;;;;5.68;1.05;;;22.40;98.60;;;;;;2603141;54;20100;31
2023/06/27 12:51:22;;;;;;;2.63;0.60;;;22.30;98.80;;;;;;2603263;54;20022;31
2023/06/27 12:53:58;;;;;;;2.70;1.10;;;22.20;98.30;;;;;;2603195;54;20771;31
2023/06/27 12:56:36;;;;;;;5.05;0.80;;;22.30;98.90;;;;;;2603372;54;20026;31
2023/06/27 12:59:11;;;;;;;2.25;0.85;;;22.50;98.70;;;;;;2621819;46;20026;31
2023/06/27 13:01:55;;;;;;;4.40;0.87;;;22.70;99.90;;;;;;2621873;46;20033;31
2023/06/27 13:04:31;;;;;;;7.00;1.50;;;22.90;99.30;;;;;;2603187;54;20942;31
2023/06/27 13:07:11;;;;;;;2.33;0.90;;;23.00;99.30;;;;;;2603257;54;20158;31
2023/06/27 13:09:47;;;;;;;5.32;1.00;;;23.10;99.00;;;;;;2621874;46;20027;31
2023/06/27 13:12:22;;;;;;;5.22;1.33;;;23.20;99.20;;;;;;2603209;54;20854;31
2023/06/27 13:15:03;;;;;;;3.97;1.05;;;23.30;99.90;;;;;;2603137;54;20027;31
2023/06/27 13:17:40;;;;;;;5.00;0.80;;;23.40;99.90;;;;;;2606789;46;20142;31
2023/06/27 13:20:17;;;;;;;4.90;1.57;;;23.40;99.90;;;;;;2603236;54;20026;31
2023/06/27 13:22:58;;;;;;;15.63;2.20;;;23.20;99.90;;;;;;2603172;54;20026;31
2023/06/27 13:25:36;;;;;;;5.10;1.55;;;22.70;99.90;;;;;;2603107;54;20038;31
2023/06/27 13:28:12;;;;;;;5.25;1.90;;;22.00;1.00;;;;;;2602336;54;20026;31
2023/06/27 13:30:51;;;;;;;6.18;1.55;;;21.40;1.00;;;;;;2602859;54;20902;31
2023/06/27 13:33:27;;;;;;;5.88;1.38;;;21.00;30.30;;;;;;2603010;54;20864;31
2023/06/27 13:36:05;;;;;;;5.65;1.30;;;20.70;44.60;;;;;;2602965;54;20910;31
2023/06/27 13:38:46;;;;;;;5.82;3.05;;;20.40;62.00;;;;;;2621417;47;20029;31
2023/06/27 13:41:24;;;;;;;5.60;1.52;;;20.30;53.80;;;;;;2602689;54;20807;31
2023/06/27 13:44:00;;;;;;;4.05;1.02;;;20.10;29.40;;;;;;2602959;54;20036;31
2023/06/27 13:46:36;;;;;;;6.88;1.55;;;19.90;38.70;;;;;;2621283;47;20925;31
2023/06/27 13:49:13;;;;;;;4.00;0.98;;;19.80;34.40;;;;;;2621333;47;20790;31
2023/06/27 13:51:49;;;;;;;2.50;1.03;;;19.70;18.90;;;;;;2603144;54;20034;31